createdAt,value
2022-12-02T00:01:59.699Z,101998.20
2022-12-02T00:04:31.185Z,101994.40
2022-12-02T00:07:02.819Z,101992.74
2022-12-02T00:09:35.210Z,101996.09
2022-12-02T00:12:23.150Z,101991.63
2022-12-02T00:14:57.985Z,101990.23
2022-12-02T00:17:28.623Z,101983.17
2022-12-02T00:19:59.310Z,101978.91
2022-12-02T00:22:29.722Z,101976.54
2022-12-02T00:25:00.084Z,101974.50
2022-12-02T00:27:30.792Z,101974.21
2022-12-02T00:30:01.628Z,101969.74
2022-12-02T00:32:32.022Z,101973.52
2022-12-02T00:35:02.784Z,101974.10
2022-12-02T00:37:33.222Z,101973.48
2022-12-02T00:40:04.593Z,101975.38
2022-12-02T00:42:35.434Z,101971.02
2022-12-02T00:45:24.978Z,101971.69
2022-12-02T00:47:55.755Z,101966.00
2022-12-02T00:50:26.829Z,101963.27
2022-12-02T00:52:57.332Z,101960.20
2022-12-02T00:55:28.233Z,101960.57
2022-12-02T00:57:58.993Z,101962.13
2022-12-02T01:00:29.952Z,101962.40
2022-12-02T01:03:00.835Z,101964.73
2022-12-02T01:05:31.244Z,101965.74
2022-12-02T01:08:01.733Z,101958.59
2022-12-02T01:10:32.343Z,101963.10
2022-12-02T01:13:03.096Z,101965.59
2022-12-02T01:15:34.383Z,101968.73
2022-12-02T01:18:05.184Z,101962.04
2022-12-02T01:20:35.643Z,101964.69
2022-12-02T01:23:06.438Z,101965.93
2022-12-02T01:25:37.306Z,101961.80
2022-12-02T01:28:08.352Z,101961.23
2022-12-02T01:30:38.959Z,101959.60
2022-12-02T01:33:09.655Z,101960.85
2022-12-02T01:35:40.408Z,101962.48
2022-12-02T01:38:11.452Z,101959.83
2022-12-02T01:40:42.551Z,101963.27
2022-12-02T01:43:13.871Z,101960.48
2022-12-02T01:45:44.763Z,101962.30
2022-12-02T01:48:15.704Z,101958.30
2022-12-02T01:50:47.273Z,101958.32
2022-12-02T01:53:18.532Z,101960.39
2022-12-02T01:55:49.835Z,101962.92
2022-12-02T01:58:24.376Z,101964.37
2022-12-02T02:00:56.911Z,101961.12
2022-12-02T02:03:27.519Z,101957.93
2022-12-02T02:05:59.086Z,101952.71
2022-12-02T02:08:29.878Z,101955.30
2022-12-02T02:11:01.136Z,101954.09
2022-12-02T02:13:31.938Z,101947.82
2022-12-02T02:16:02.479Z,101946.88
2022-12-02T02:18:32.881Z,101947.82
2022-12-02T02:21:03.953Z,101944.56
2022-12-02T02:23:34.297Z,101946.34
2022-12-02T02:26:06.210Z,101939.86
2022-12-02T02:28:37.625Z,101936.17
2022-12-02T02:31:08.978Z,101932.11
2022-12-02T02:33:40.796Z,101932.83
2022-12-02T02:36:12.752Z,101941.02
2022-12-02T02:38:43.589Z,101939.70
2022-12-02T02:41:14.230Z,101940.16
2022-12-02T02:43:45.067Z,101935.77
2022-12-02T02:46:16.045Z,101930.85
2022-12-02T02:48:47.990Z,101931.66
2022-12-02T02:51:18.831Z,101925.66
2022-12-02T02:53:49.597Z,101926.69
2022-12-02T02:56:20.602Z,101924.20
2022-12-02T02:58:51.030Z,101922.19
2022-12-02T03:01:26.042Z,101924.83
2022-12-02T03:04:00.559Z,101920.03
2022-12-02T03:06:33.530Z,101916.79
2022-12-02T03:09:07.029Z,101914.67
2022-12-02T03:11:39.429Z,101917.55
2022-12-02T03:14:15.534Z,101920.13
2022-12-02T03:16:47.725Z,101917.92
2022-12-02T03:19:19.092Z,101916.13
2022-12-02T03:21:50.459Z,101916.39
2022-12-02T03:24:21.676Z,101916.21
2022-12-02T03:26:52.839Z,101911.93
2022-12-02T03:29:23.849Z,101909.82
2022-12-02T03:31:55.118Z,101905.02
2022-12-02T03:34:26.152Z,101907.25
2022-12-02T03:36:57.003Z,101905.48
2022-12-02T03:39:27.708Z,101908.17
2022-12-02T03:41:58.615Z,101902.34
2022-12-02T03:44:29.361Z,101904.83
2022-12-02T03:47:00.542Z,101903.08
2022-12-02T03:49:34.130Z,101904.27
2022-12-02T03:52:05.362Z,101898.45
2022-12-02T03:54:37.379Z,101894.69
2022-12-02T03:57:09.334Z,101895.42
2022-12-02T03:59:39.793Z,101887.02
2022-12-02T04:02:10.918Z,101888.14
2022-12-02T04:04:42.028Z,101886.62
2022-12-02T04:07:12.668Z,101889.48
2022-12-02T04:09:43.083Z,101890.40
2022-12-02T04:12:14.265Z,101885.57
2022-12-02T04:14:44.752Z,101885.14
2022-12-02T04:17:15.397Z,101886.70
2022-12-02T04:19:45.757Z,101882.23
2022-12-02T04:22:16.143Z,101880.63
2022-12-02T04:24:46.865Z,101882.84
2022-12-02T04:27:17.264Z,101879.50
2022-12-02T04:29:47.902Z,101874.13
2022-12-02T04:32:19.064Z,101870.34
2022-12-02T04:34:49.952Z,101869.64
2022-12-02T04:37:20.825Z,101872.17
2022-12-02T04:39:51.207Z,101868.30
2022-12-02T04:42:21.534Z,101868.23
2022-12-02T04:44:52.901Z,101869.72
2022-12-02T04:47:23.578Z,101865.46
2022-12-02T04:49:53.992Z,101864.05
2022-12-02T04:52:24.476Z,101863.05
2022-12-02T04:54:55.191Z,101860.64
2022-12-02T04:57:31.120Z,101854.73
2022-12-02T05:00:02.582Z,101856.35
2022-12-02T05:02:33.036Z,101861.56
2022-12-02T05:05:04.249Z,101859.75
2022-12-02T05:07:34.684Z,101858.93
2022-12-02T05:10:06.336Z,101853.09
2022-12-02T05:12:37.415Z,101853.59
2022-12-02T05:15:09.828Z,101851.73
2022-12-02T05:17:42.370Z,101854.67
2022-12-02T05:20:15.179Z,101854.66
2022-12-02T05:22:45.877Z,101852.80
2022-12-02T05:25:16.696Z,101851.76
2022-12-02T05:27:47.259Z,101849.38
2022-12-02T05:30:18.342Z,101854.13
2022-12-02T05:32:48.982Z,101858.18
2022-12-02T05:35:19.471Z,101861.77
2022-12-02T05:37:50.172Z,101859.35
2022-12-02T05:40:20.595Z,101853.95
2022-12-02T05:42:51.282Z,101856.14
2022-12-02T05:45:23.836Z,101853.07
2022-12-02T05:47:56.462Z,101855.20
2022-12-02T05:50:26.872Z,101860.22
2022-12-02T05:52:57.239Z,101862.56
2022-12-02T05:55:28.547Z,101861.55
2022-12-02T05:58:03.002Z,101856.83
2022-12-02T06:00:33.732Z,101849.92
2022-12-02T06:03:07.352Z,101852.52
2022-12-02T06:05:43.162Z,101856.55
2022-12-02T06:08:18.740Z,101858.59
2022-12-02T06:10:52.939Z,101859.23
2022-12-02T06:13:25.716Z,101861.17
2022-12-02T06:15:57.168Z,101861.29
2022-12-02T06:18:31.308Z,101861.34
2022-12-02T06:21:04.657Z,101865.59
2022-12-02T06:23:45.746Z,101864.23
2022-12-02T06:26:18.828Z,101863.02
2022-12-02T06:28:51.021Z,101860.13
2022-12-02T06:31:28.308Z,101865.86
2022-12-02T06:34:02.006Z,101869.15
2022-12-02T06:36:34.080Z,101867.34
2022-12-02T06:39:16.415Z,101866.78
2022-12-02T06:41:46.729Z,101866.01
2022-12-02T06:44:38.488Z,101862.08
2022-12-02T06:47:39.764Z,101864.38
2022-12-02T06:50:24.752Z,101860.27
2022-12-02T06:52:57.417Z,101864.73
2022-12-02T06:55:34.987Z,101866.24
2022-12-02T06:58:24.092Z,101863.57
2022-12-02T07:00:55.396Z,101865.87
2022-12-02T07:03:31.736Z,101864.73
2022-12-02T07:06:15.331Z,101865.34
2022-12-02T07:08:46.372Z,101865.64
2022-12-02T07:11:45.010Z,101864.85
2022-12-02T07:14:26.248Z,101870.88
2022-12-02T07:16:59.663Z,101875.17
2022-12-02T07:19:37.628Z,101877.87
2022-12-02T07:22:16.035Z,101874.81
2022-12-02T07:24:50.736Z,101872.52
2022-12-02T07:27:26.123Z,101869.59
2022-12-02T07:29:58.258Z,101875.03
2022-12-02T07:32:28.728Z,101866.94
2022-12-02T07:34:59.233Z,101866.50
2022-12-02T07:37:30.524Z,101869.15
2022-12-02T07:40:00.927Z,101870.29
2022-12-02T07:42:31.658Z,101869.48
2022-12-02T07:45:01.954Z,101865.98
2022-12-02T07:47:34.324Z,101871.13
2022-12-02T07:50:06.091Z,101874.63
2022-12-02T07:52:36.619Z,101877.84
2022-12-02T07:55:09.011Z,101874.37
2022-12-02T07:57:40.235Z,101868.25
2022-12-02T08:00:14.362Z,101869.07
2022-12-02T08:02:45.399Z,101872.73
2022-12-02T08:05:16.210Z,101875.74
2022-12-02T08:07:46.877Z,101881.75
2022-12-02T08:10:18.446Z,101879.86
2022-12-02T08:12:49.391Z,101880.55
2022-12-02T08:15:20.009Z,101879.58
2022-12-02T08:17:50.748Z,101884.95
2022-12-02T08:20:21.447Z,101883.08
2022-12-02T08:22:52.905Z,101884.27
2022-12-02T08:25:23.806Z,101880.64
2022-12-02T08:27:54.901Z,101881.82
2022-12-02T08:30:25.933Z,101879.48
2022-12-02T08:32:56.895Z,101882.86
2022-12-02T08:35:27.340Z,101882.84
2022-12-02T08:37:58.052Z,101881.63
2022-12-02T08:40:28.811Z,101883.02
2022-12-02T08:42:59.519Z,101885.51
2022-12-02T08:45:30.422Z,101880.55
2022-12-02T08:48:01.154Z,101881.02
2022-12-02T08:50:31.916Z,101885.23
2022-12-02T08:53:02.275Z,101884.98
2022-12-02T08:55:32.856Z,101883.64
2022-12-02T08:58:03.288Z,101891.96
2022-12-02T09:00:38.787Z,101890.64
2022-12-02T09:03:10.432Z,101888.14
2022-12-02T09:05:42.316Z,101888.45
2022-12-02T09:08:12.983Z,101885.47
2022-12-02T09:10:43.406Z,101886.77
2022-12-02T09:13:13.974Z,101889.47
2022-12-02T09:15:44.437Z,101891.69
2022-12-02T09:18:15.433Z,101889.63
2022-12-02T09:20:45.878Z,101892.07
2022-12-02T09:23:16.817Z,101891.27
2022-12-02T09:25:47.796Z,101889.11
2022-12-02T09:28:20.600Z,101891.81
2022-12-02T09:30:51.689Z,101892.99
2022-12-02T09:33:22.498Z,101890.02
2022-12-02T09:35:53.025Z,101887.30
2022-12-02T09:38:23.756Z,101883.73
2022-12-02T09:40:54.159Z,101882.67
2022-12-02T09:43:24.691Z,101879.71
2022-12-02T09:45:55.523Z,101880.81
2022-12-02T09:48:26.897Z,101879.37
2022-12-02T09:50:58.330Z,101878.27
2022-12-02T09:53:33.256Z,101877.27
2022-12-02T09:56:04.406Z,101878.45
2022-12-02T09:58:35.177Z,101877.16
2022-12-02T10:01:09.673Z,101878.71
2022-12-02T10:03:40.937Z,101878.33
2022-12-02T10:06:18.578Z,101879.20
2022-12-02T10:08:49.972Z,101876.64
2022-12-02T10:11:24.671Z,101879.31
2022-12-02T10:13:56.360Z,101874.44
2022-12-02T10:16:29.351Z,101870.51
2022-12-02T10:19:04.238Z,101865.72
2022-12-02T10:21:35.280Z,101861.92
2022-12-02T10:24:09.610Z,101860.02
2022-12-02T10:26:49.260Z,101860.30
2022-12-02T10:29:28.651Z,101855.73
2022-12-02T10:32:01.752Z,101856.65
2022-12-02T10:34:33.631Z,101856.77
2022-12-02T10:37:19.119Z,101856.58
2022-12-02T10:39:49.696Z,101863.39
2022-12-02T10:42:21.584Z,101859.45
2022-12-02T10:45:21.934Z,101867.84
2022-12-02T10:48:11.701Z,101863.39
2022-12-02T10:50:42.557Z,101855.67
2022-12-02T10:53:17.537Z,101854.66
2022-12-02T10:55:48.565Z,101854.30
2022-12-02T10:58:28.031Z,101851.36
2022-12-02T11:00:59.825Z,101850.32
2022-12-02T11:03:30.475Z,101850.78
2022-12-02T11:06:02.828Z,101850.64
2022-12-02T11:08:33.392Z,101850.88
2022-12-02T11:11:15.266Z,101848.85
2022-12-02T11:13:56.447Z,101843.60
2022-12-02T11:16:53.897Z,101842.40
2022-12-02T11:19:46.699Z,101843.02
2022-12-02T11:22:49.849Z,101840.23
2022-12-02T11:25:55.036Z,101841.59
2022-12-02T11:29:17.552Z,101838.02
2022-12-02T11:32:03.847Z,101837.59
2022-12-02T11:35:15.795Z,101840.92
2022-12-02T11:37:41.581Z,101840.06
2022-12-02T11:40:58.877Z,101839.11
2022-12-02T11:44:08.201Z,101838.93
2022-12-02T11:46:49.611Z,101835.05
2022-12-02T11:49:41.140Z,101834.59
2022-12-02T11:52:22.476Z,101834.19
2022-12-02T11:54:57.098Z,101829.55
2022-12-02T11:57:32.043Z,101833.22
2022-12-02T12:00:02.532Z,101830.77
2022-12-02T12:02:32.924Z,101831.34
2022-12-02T12:05:05.971Z,101829.10
2022-12-02T12:07:48.294Z,101832.11
2022-12-02T12:10:31.225Z,101832.29
2022-12-02T12:13:24.062Z,101827.41
2022-12-02T12:16:02.950Z,101825.94
2022-12-02T12:18:48.958Z,101821.05
2022-12-02T12:21:42.329Z,101823.38
2022-12-02T12:24:30.632Z,101818.70
2022-12-02T12:27:11.473Z,101811.64
2022-12-02T12:29:42.658Z,101817.66
2022-12-02T12:32:13.529Z,101814.33
2022-12-02T12:34:44.216Z,101810.13
2022-12-02T12:37:14.529Z,101811.05
2022-12-02T12:39:45.827Z,101808.83
2022-12-02T12:42:16.187Z,101804.49
2022-12-02T12:44:46.594Z,101804.17
2022-12-02T12:47:22.153Z,101798.58
2022-12-02T12:49:53.010Z,101792.01
2022-12-02T12:52:23.382Z,101794.31
2022-12-02T12:54:54.004Z,101793.16
2022-12-02T12:57:24.587Z,101793.02
2022-12-02T12:59:55.223Z,101794.61
2022-12-02T13:02:25.906Z,101799.44
2022-12-02T13:04:56.495Z,101797.99
2022-12-02T13:07:26.903Z,101794.13
2022-12-02T13:09:57.544Z,101789.50
2022-12-02T13:12:28.020Z,101787.14
2022-12-02T13:14:58.409Z,101785.84
2022-12-02T13:17:28.858Z,101787.40
2022-12-02T13:19:59.200Z,101788.11
2022-12-02T13:22:29.901Z,101797.33
2022-12-02T13:25:00.229Z,101790.08
2022-12-02T13:27:30.565Z,101792.94
2022-12-02T13:30:01.023Z,101791.15
2022-12-02T13:32:31.447Z,101789.75
2022-12-02T13:35:02.200Z,101796.63
2022-12-02T13:37:32.560Z,101791.67
2022-12-02T13:40:03.296Z,101793.53
2022-12-02T13:42:33.829Z,101794.48
2022-12-02T13:45:04.943Z,101792.78
2022-12-02T13:47:35.649Z,101795.97
2022-12-02T13:50:08.233Z,101795.12
2022-12-02T13:52:38.759Z,101796.47
2022-12-02T13:55:10.508Z,101792.34
2022-12-02T13:57:41.169Z,101795.64
2022-12-02T14:00:15.880Z,101798.69
2022-12-02T14:02:46.494Z,101795.87
2022-12-02T14:05:17.029Z,101798.98
2022-12-02T14:07:48.186Z,101800.54
2022-12-02T14:10:19.042Z,101801.84
2022-12-02T14:12:49.391Z,101798.19
2022-12-02T14:15:19.730Z,101796.86
2022-12-02T14:17:50.333Z,101800.86
2022-12-02T14:20:20.740Z,101804.98
2022-12-02T14:22:51.079Z,101801.66
2022-12-02T14:25:21.934Z,101803.77
2022-12-02T14:27:52.249Z,101809.73
2022-12-02T14:30:22.847Z,101805.19
2022-12-02T14:32:53.260Z,101812.36
2022-12-02T14:35:23.680Z,101813.30
2022-12-02T14:37:53.976Z,101808.27
2022-12-02T14:40:24.304Z,101807.88
2022-12-02T14:42:54.905Z,101810.56
2022-12-02T14:45:26.674Z,101812.74
2022-12-02T14:47:57.250Z,101809.10
2022-12-02T14:50:30.242Z,101810.00
2022-12-02T14:53:01.111Z,101814.99
2022-12-02T14:55:31.666Z,101813.59
2022-12-02T14:58:01.995Z,101810.20
2022-12-02T15:00:32.748Z,101810.36
2022-12-02T15:03:03.176Z,101807.67
2022-12-02T15:05:33.581Z,101808.50
2022-12-02T15:08:04.801Z,101812.18
2022-12-02T15:10:40.072Z,101806.91
2022-12-02T15:13:12.051Z,101808.96
2022-12-02T15:15:46.382Z,101805.63
2022-12-02T15:18:20.807Z,101809.77
2022-12-02T15:20:51.495Z,101809.32
2022-12-02T15:23:22.154Z,101812.58
2022-12-02T15:25:52.549Z,101812.32
2022-12-02T15:28:22.905Z,101810.48
2022-12-02T15:30:53.358Z,101817.67
2022-12-02T15:33:23.749Z,101816.71
2022-12-02T15:35:54.229Z,101810.60
2022-12-02T15:38:24.937Z,101819.13
2022-12-02T15:40:55.697Z,101815.37
2022-12-02T15:43:26.135Z,101817.45
2022-12-02T15:45:56.682Z,101816.03
2022-12-02T15:48:27.277Z,101820.88
2022-12-02T15:50:57.870Z,101814.94
2022-12-02T15:53:28.271Z,101815.48
2022-12-02T15:55:58.579Z,101817.94
2022-12-02T15:58:28.917Z,101817.77
2022-12-02T16:00:59.659Z,101818.16
2022-12-02T16:03:30.773Z,101820.95
2022-12-02T16:06:01.721Z,101827.15
2022-12-02T16:08:33.167Z,101824.20
2022-12-02T16:11:03.917Z,101825.62
2022-12-02T16:13:34.539Z,101826.27
2022-12-02T16:16:06.007Z,101825.23
2022-12-02T16:18:37.171Z,101826.86
2022-12-02T16:21:08.091Z,101828.77
2022-12-02T16:23:39.249Z,101828.88
2022-12-02T16:26:09.963Z,101822.39
2022-12-02T16:28:42.787Z,101829.06
2022-12-02T16:31:13.606Z,101824.20
2022-12-02T16:33:44.010Z,101823.63
2022-12-02T16:36:14.635Z,101823.55
2022-12-02T16:38:45.174Z,101820.88
2022-12-02T16:41:15.821Z,101821.16
2022-12-02T16:43:46.422Z,101821.80
2022-12-02T16:46:16.808Z,101814.90
2022-12-02T16:48:47.971Z,101820.77
2022-12-02T16:51:18.354Z,101820.32
2022-12-02T16:53:49.147Z,101819.84
2022-12-02T16:56:20.107Z,101819.38
2022-12-02T16:58:50.418Z,101821.89
2022-12-02T17:01:21.560Z,101823.91
2022-12-02T17:03:52.683Z,101826.48
2022-12-02T17:06:23.339Z,101825.33
2022-12-02T17:08:55.856Z,101827.41
2022-12-02T17:11:26.788Z,101825.11
2022-12-02T17:13:57.212Z,101826.75
2022-12-02T17:16:27.713Z,101823.43
2022-12-02T17:18:58.169Z,101828.39
2022-12-02T17:21:28.636Z,101832.56
2022-12-02T17:23:59.007Z,101827.85
2022-12-02T17:26:29.344Z,101828.75
2022-12-02T17:28:59.667Z,101829.57
2022-12-02T17:31:30.197Z,101826.56
2022-12-02T17:34:00.953Z,101828.08
2022-12-02T17:36:32.070Z,101828.02
2022-12-02T17:39:02.529Z,101834.34
2022-12-02T17:41:33.055Z,101835.94
2022-12-02T17:44:03.885Z,101837.66
2022-12-02T17:46:35.346Z,101834.04
2022-12-02T17:49:05.828Z,101836.16
2022-12-02T17:51:36.205Z,101830.76
2022-12-02T17:54:06.859Z,101837.29
2022-12-02T17:56:37.761Z,101833.95
2022-12-02T17:59:10.946Z,101834.23
2022-12-02T18:01:41.531Z,101837.02
2022-12-02T18:04:12.009Z,101840.29
2022-12-02T18:06:42.453Z,101833.90
2022-12-02T18:09:13.771Z,101834.16
2022-12-02T18:11:44.232Z,101833.51
2022-12-02T18:14:14.578Z,101835.70
2022-12-02T18:16:45.448Z,101825.70
2022-12-02T18:19:16.199Z,101839.78
2022-12-02T18:21:47.027Z,101838.67
2022-12-02T18:24:17.730Z,101840.61
2022-12-02T18:26:48.098Z,101837.76
2022-12-02T18:29:18.992Z,101842.59
2022-12-02T18:31:49.555Z,101837.42
2022-12-02T18:34:23.794Z,101836.54
2022-12-02T18:36:54.588Z,101833.45
2022-12-02T18:39:25.056Z,101834.91
2022-12-02T18:41:55.437Z,101828.60
2022-12-02T18:44:25.831Z,101828.27
2022-12-02T18:46:56.803Z,101828.39
2022-12-02T18:49:28.152Z,101825.80
2022-12-02T18:51:59.250Z,101827.49
2022-12-02T18:54:29.638Z,101825.66
2022-12-02T18:57:00.719Z,101821.55
2022-12-02T18:59:31.176Z,101820.82
2022-12-02T19:02:02.477Z,101818.64
2022-12-02T19:04:33.005Z,101820.13
2022-12-02T19:07:03.471Z,101818.02
2022-12-02T19:09:34.460Z,101816.77
2022-12-02T19:12:05.991Z,101814.30
2022-12-02T19:14:36.797Z,101814.65
2022-12-02T19:17:07.317Z,101812.21
2022-12-02T19:19:38.090Z,101815.44
2022-12-02T19:22:09.468Z,101813.80
2022-12-02T19:24:40.537Z,101806.41
2022-12-02T19:27:18.970Z,101811.85
2022-12-02T19:30:02.460Z,101811.19
2022-12-02T19:32:32.871Z,101808.80
2022-12-02T19:35:03.306Z,101810.02
2022-12-02T19:37:33.707Z,101815.33
2022-12-02T19:40:04.233Z,101811.05
2022-12-02T19:42:34.866Z,101812.48
2022-12-02T19:45:05.997Z,101806.92
2022-12-02T19:47:36.642Z,101807.38
2022-12-02T19:50:08.813Z,101808.86
2022-12-02T19:52:41.052Z,101808.25
2022-12-02T19:55:13.017Z,101804.05
2022-12-02T19:57:43.868Z,101803.73
2022-12-02T20:00:17.577Z,101807.39
2022-12-02T20:02:48.428Z,101805.36
2022-12-02T20:05:22.196Z,101808.14
2022-12-02T20:07:53.708Z,101804.42
2022-12-02T20:10:24.630Z,101810.59
2022-12-02T20:12:55.676Z,101807.43
2022-12-02T20:15:26.302Z,101806.13
2022-12-02T20:17:57.636Z,101804.73
2022-12-02T20:20:27.944Z,101806.38
2022-12-02T20:22:58.524Z,101806.48
2022-12-02T20:25:29.716Z,101807.91
2022-12-02T20:28:00.236Z,101807.94
2022-12-02T20:30:30.540Z,101810.30
2022-12-02T20:33:00.975Z,101813.08
2022-12-02T20:35:31.343Z,101810.10
2022-12-02T20:38:01.850Z,101811.98
2022-12-02T20:40:32.827Z,101814.28
2022-12-02T20:43:03.776Z,101809.39
2022-12-02T20:45:35.084Z,101810.30
2022-12-02T20:48:06.196Z,101810.60
2022-12-02T20:50:37.176Z,101812.62
2022-12-02T20:53:07.884Z,101812.96
2022-12-02T20:55:38.664Z,101814.07
2022-12-02T20:58:09.340Z,101814.45
2022-12-02T21:00:40.154Z,101812.65
2022-12-02T21:03:11.123Z,101807.13
2022-12-02T21:05:41.474Z,101808.83
2022-12-02T21:08:12.049Z,101811.30
2022-12-02T21:10:42.519Z,101810.30
2022-12-02T21:13:13.815Z,101816.32
2022-12-02T21:15:44.542Z,101814.71
2022-12-02T21:18:15.441Z,101813.80
2022-12-02T21:20:45.821Z,101815.60
2022-12-02T21:23:16.230Z,101814.02
2022-12-02T21:25:47.136Z,101814.78
2022-12-02T21:28:17.544Z,101815.75
2022-12-02T21:30:47.881Z,101809.56
2022-12-02T21:33:18.833Z,101813.46
2022-12-02T21:35:49.952Z,101809.84
2022-12-02T21:38:21.149Z,101813.21
2022-12-02T21:40:52.349Z,101807.19
2022-12-02T21:43:23.108Z,101807.02
2022-12-02T21:45:53.832Z,101802.27
2022-12-02T21:48:24.525Z,101799.96
2022-12-02T21:50:55.141Z,101802.53
2022-12-02T21:53:25.676Z,101798.81
2022-12-02T21:55:56.012Z,101802.86
2022-12-02T21:58:26.683Z,101800.73
2022-12-02T22:01:10.993Z,101805.89
2022-12-02T22:03:41.973Z,101805.80
2022-12-02T22:06:12.701Z,101804.17
2022-12-02T22:08:43.837Z,101800.54
2022-12-02T22:11:14.510Z,101800.89
2022-12-02T22:13:45.024Z,101804.84
2022-12-02T22:16:15.504Z,101806.41
2022-12-02T22:18:46.402Z,101803.28
2022-12-02T22:21:16.720Z,101803.50
2022-12-02T22:23:47.076Z,101805.33
2022-12-02T22:26:20.129Z,101805.89
2022-12-02T22:28:50.702Z,101807.58
2022-12-02T22:31:21.121Z,101803.83
2022-12-02T22:33:51.531Z,101801.44
2022-12-02T22:36:22.695Z,101803.85
2022-12-02T22:38:53.287Z,101807.23
2022-12-02T22:41:24.471Z,101802.80
2022-12-02T22:43:55.572Z,101803.36
2022-12-02T22:46:26.089Z,101800.70
2022-12-02T22:48:57.346Z,101805.35
2022-12-02T22:51:33.899Z,101802.75
2022-12-02T22:54:06.122Z,101800.15
2022-12-02T22:56:37.191Z,101795.59
2022-12-02T22:59:07.585Z,101793.63
2022-12-02T23:01:38.778Z,101798.16
2022-12-02T23:04:09.751Z,101786.06
2022-12-02T23:06:40.597Z,101794.45
2022-12-02T23:09:11.432Z,101800.39
2022-12-02T23:11:42.420Z,101798.89
2022-12-02T23:14:12.795Z,101799.17
2022-12-02T23:16:44.037Z,101796.67
2022-12-02T23:19:15.746Z,101797.94
2022-12-02T23:21:46.146Z,101790.15
2022-12-02T23:24:16.477Z,101792.56
2022-12-02T23:26:46.852Z,101791.47
2022-12-02T23:29:17.178Z,101789.10
2022-12-02T23:31:47.517Z,101787.19
2022-12-02T23:34:17.992Z,101784.17
2022-12-02T23:36:48.478Z,101785.29
2022-12-02T23:39:18.829Z,101785.91
2022-12-02T23:41:49.444Z,101785.93
2022-12-02T23:44:20.191Z,101787.05
2022-12-02T23:46:50.830Z,101786.24
2022-12-02T23:49:21.234Z,101783.30
2022-12-02T23:51:52.471Z,101782.31
2022-12-02T23:54:22.823Z,101783.15
2022-12-02T23:56:53.172Z,101781.40
2022-12-02T23:59:23.637Z,101780.66
